sensor_id;sensor_type;location;lat;lon;timestamp;temperature;humidity
51733;DHT22;39139;53.144;6.244;2023-03-04T00:02:21;5.80;99.90
51733;DHT22;39139;53.144;6.244;2023-03-04T00:04:46;5.80;99.90
51733;DHT22;39139;53.144;6.244;2023-03-04T00:07:12;5.80;99.90
51733;DHT22;39139;53.144;6.244;2023-03-04T00:09:42;5.80;99.90
51733;DHT22;39139;53.144;6.244;2023-03-04T00:12:08;5.80;99.90
51733;DHT22;39139;53.144;6.244;2023-03-04T00:14:33;5.80;99.90
51733;DHT22;39139;53.144;6.244;2023-03-04T00:16:59;5.80;99.90
51733;DHT22;39139;53.144;6.244;2023-03-04T00:19:24;5.80;99.90
51733;DHT22;39139;53.144;6.244;2023-03-04T00:21:50;5.80;99.90
51733;DHT22;39139;53.144;6.244;2023-03-04T00:24:16;6.20;99.90
51733;DHT22;39139;53.144;6.244;2023-03-04T00:26:42;5.80;99.90
51733;DHT22;39139;53.144;6.244;2023-03-04T00:29:08;5.70;99.90
51733;DHT22;39139;53.144;6.244;2023-03-04T00:31:33;5.80;99.90
51733;DHT22;39139;53.144;6.244;2023-03-04T00:33:59;5.80;99.90
51733;DHT22;39139;53.144;6.244;2023-03-04T00:36:24;5.80;99.90
51733;DHT22;39139;53.144;6.244;2023-03-04T00:38:50;5.70;99.90
51733;DHT22;39139;53.144;6.244;2023-03-04T00:41:16;5.80;99.90
51733;DHT22;39139;53.144;6.244;2023-03-04T00:43:41;5.80;99.90
51733;DHT22;39139;53.144;6.244;2023-03-04T00:46:07;5.80;99.90
51733;DHT22;39139;53.144;6.244;2023-03-04T00:48:33;5.80;99.90
51733;DHT22;39139;53.144;6.244;2023-03-04T00:50:58;5.80;99.90
51733;DHT22;39139;53.144;6.244;2023-03-04T00:53:24;5.80;99.90
51733;DHT22;39139;53.144;6.244;2023-03-04T00:55:50;5.80;99.90
51733;DHT22;39139;53.144;6.244;2023-03-04T00:58:15;5.80;99.90
51733;DHT22;39139;53.144;6.244;2023-03-04T01:00:41;5.80;99.90
51733;DHT22;39139;53.144;6.244;2023-03-04T01:03:07;5.80;99.90
51733;DHT22;39139;53.144;6.244;2023-03-04T01:05:32;5.80;99.90
51733;DHT22;39139;53.144;6.244;2023-03-04T01:08:00;5.80;99.90
51733;DHT22;39139;53.144;6.244;2023-03-04T01:10:26;5.80;99.90
51733;DHT22;39139;53.144;6.244;2023-03-04T01:12:52;5.80;99.90
51733;DHT22;39139;53.144;6.244;2023-03-04T01:15:17;5.80;99.90
51733;DHT22;39139;53.144;6.244;2023-03-04T01:17:43;5.70;99.90
51733;DHT22;39139;53.144;6.244;2023-03-04T01:20:10;5.70;99.90
51733;DHT22;39139;53.144;6.244;2023-03-04T01:22:37;5.70;99.90
51733;DHT22;39139;53.144;6.244;2023-03-04T01:25:03;5.80;99.90
51733;DHT22;39139;53.144;6.244;2023-03-04T01:27:28;5.70;99.90
51733;DHT22;39139;53.144;6.244;2023-03-04T01:29:54;5.70;99.90
51733;DHT22;39139;53.144;6.244;2023-03-04T01:32:20;5.70;99.90
51733;DHT22;39139;53.144;6.244;2023-03-04T01:34:45;5.70;99.90
51733;DHT22;39139;53.144;6.244;2023-03-04T01:37:11;5.70;99.90
51733;DHT22;39139;53.144;6.244;2023-03-04T01:39:38;5.70;99.90
51733;DHT22;39139;53.144;6.244;2023-03-04T01:42:04;5.70;99.90
51733;DHT22;39139;53.144;6.244;2023-03-04T01:44:30;5.60;99.90
51733;DHT22;39139;53.144;6.244;2023-03-04T01:46:55;5.60;99.90
51733;DHT22;39139;53.144;6.244;2023-03-04T01:49:22;5.60;99.90
51733;DHT22;39139;53.144;6.244;2023-03-04T01:51:50;5.60;99.90
51733;DHT22;39139;53.144;6.244;2023-03-04T01:54:17;5.60;99.90
51733;DHT22;39139;53.144;6.244;2023-03-04T01:56:45;5.60;99.90
51733;DHT22;39139;53.144;6.244;2023-03-04T01:59:23;5.60;99.90
51733;DHT22;39139;53.144;6.244;2023-03-04T02:01:57;5.60;99.90
51733;DHT22;39139;53.144;6.244;2023-03-04T02:04:31;5.60;99.90
51733;DHT22;39139;53.144;6.244;2023-03-04T02:07:00;5.60;99.90
51733;DHT22;39139;53.144;6.244;2023-03-04T02:09:26;5.50;99.90
51733;DHT22;39139;53.144;6.244;2023-03-04T02:11:52;5.60;99.90
51733;DHT22;39139;53.144;6.244;2023-03-04T02:14:19;5.70;99.90
51733;DHT22;39139;53.144;6.244;2023-03-04T02:16:45;5.70;99.90
51733;DHT22;39139;53.144;6.244;2023-03-04T02:19:50;5.50;99.90
51733;DHT22;39139;53.144;6.244;2023-03-04T02:22:17;5.50;99.90
51733;DHT22;39139;53.144;6.244;2023-03-04T02:24:59;5.50;99.90
51733;DHT22;39139;53.144;6.244;2023-03-04T02:27:26;5.50;99.90
51733;DHT22;39139;53.144;6.244;2023-03-04T02:29:52;5.50;99.90
51733;DHT22;39139;53.144;6.244;2023-03-04T02:32:17;5.50;99.90
51733;DHT22;39139;53.144;6.244;2023-03-04T02:34:49;5.50;99.90
51733;DHT22;39139;53.144;6.244;2023-03-04T02:37:16;5.50;99.90
51733;DHT22;39139;53.144;6.244;2023-03-04T02:39:44;5.50;99.90
51733;DHT22;39139;53.144;6.244;2023-03-04T02:42:10;5.50;99.90
51733;DHT22;39139;53.144;6.244;2023-03-04T02:44:38;5.50;99.90
51733;DHT22;39139;53.144;6.244;2023-03-04T02:47:07;5.50;99.90
51733;DHT22;39139;53.144;6.244;2023-03-04T02:49:35;5.50;99.90
51733;DHT22;39139;53.144;6.244;2023-03-04T02:52:07;5.50;99.90
51733;DHT22;39139;53.144;6.244;2023-03-04T02:54:33;5.50;99.90
51733;DHT22;39139;53.144;6.244;2023-03-04T02:57:01;5.50;99.90
51733;DHT22;39139;53.144;6.244;2023-03-04T02:59:28;5.50;99.90
51733;DHT22;39139;53.144;6.244;2023-03-04T03:01:54;5.50;99.90
51733;DHT22;39139;53.144;6.244;2023-03-04T03:04:21;5.50;99.90
51733;DHT22;39139;53.144;6.244;2023-03-04T03:06:47;5.50;99.90
51733;DHT22;39139;53.144;6.244;2023-03-04T03:09:13;5.50;99.90
51733;DHT22;39139;53.144;6.244;2023-03-04T03:11:38;5.50;99.90
51733;DHT22;39139;53.144;6.244;2023-03-04T03:14:04;5.50;99.90
51733;DHT22;39139;53.144;6.244;2023-03-04T03:16:30;5.50;99.90
51733;DHT22;39139;53.144;6.244;2023-03-04T03:18:55;5.50;99.90
51733;DHT22;39139;53.144;6.244;2023-03-04T03:21:22;5.50;99.90
51733;DHT22;39139;53.144;6.244;2023-03-04T03:23:48;5.50;99.90
51733;DHT22;39139;53.144;6.244;2023-03-04T03:26:13;5.50;99.90
51733;DHT22;39139;53.144;6.244;2023-03-04T03:28:39;5.50;99.90
51733;DHT22;39139;53.144;6.244;2023-03-04T03:31:05;5.50;99.90
51733;DHT22;39139;53.144;6.244;2023-03-04T03:33:30;5.50;99.90
51733;DHT22;39139;53.144;6.244;2023-03-04T03:35:56;5.50;99.90
51733;DHT22;39139;53.144;6.244;2023-03-04T03:38:22;5.60;99.90
51733;DHT22;39139;53.144;6.244;2023-03-04T03:40:48;5.50;99.90
51733;DHT22;39139;53.144;6.244;2023-03-04T03:43:13;5.50;99.90
51733;DHT22;39139;53.144;6.244;2023-03-04T03:45:39;5.50;99.90
51733;DHT22;39139;53.144;6.244;2023-03-04T03:48:04;5.50;99.90
51733;DHT22;39139;53.144;6.244;2023-03-04T03:50:30;5.50;99.90
51733;DHT22;39139;53.144;6.244;2023-03-04T03:52:56;5.50;99.90
51733;DHT22;39139;53.144;6.244;2023-03-04T03:55:22;5.50;99.90
51733;DHT22;39139;53.144;6.244;2023-03-04T03:57:47;5.50;99.90
51733;DHT22;39139;53.144;6.244;2023-03-04T04:00:14;5.50;99.90
51733;DHT22;39139;53.144;6.244;2023-03-04T04:02:40;5.50;99.90
51733;DHT22;39139;53.144;6.244;2023-03-04T04:05:07;5.50;99.90
51733;DHT22;39139;53.144;6.244;2023-03-04T04:07:33;5.50;99.90
51733;DHT22;39139;53.144;6.244;2023-03-04T04:09:59;5.50;99.90
51733;DHT22;39139;53.144;6.244;2023-03-04T04:12:25;5.50;99.90
51733;DHT22;39139;53.144;6.244;2023-03-04T04:14:50;5.50;99.90
51733;DHT22;39139;53.144;6.244;2023-03-04T04:17:16;5.50;99.90
51733;DHT22;39139;53.144;6.244;2023-03-04T04:19:41;5.50;99.90
51733;DHT22;39139;53.144;6.244;2023-03-04T04:22:13;5.50;99.90
51733;DHT22;39139;53.144;6.244;2023-03-04T04:24:39;5.50;99.90
51733;DHT22;39139;53.144;6.244;2023-03-04T04:27:04;5.50;99.90
51733;DHT22;39139;53.144;6.244;2023-03-04T04:29:30;5.50;99.90
51733;DHT22;39139;53.144;6.244;2023-03-04T04:31:56;5.50;99.90
51733;DHT22;39139;53.144;6.244;2023-03-04T04:34:22;5.50;99.90
51733;DHT22;39139;53.144;6.244;2023-03-04T04:36:48;5.50;99.90
51733;DHT22;39139;53.144;6.244;2023-03-04T04:39:14;5.50;99.90
51733;DHT22;39139;53.144;6.244;2023-03-04T04:41:41;5.50;99.90
51733;DHT22;39139;53.144;6.244;2023-03-04T04:44:07;5.50;99.90
51733;DHT22;39139;53.144;6.244;2023-03-04T04:46:33;5.50;99.90
51733;DHT22;39139;53.144;6.244;2023-03-04T04:48:59;5.50;99.90
51733;DHT22;39139;53.144;6.244;2023-03-04T04:51:25;5.50;99.90
51733;DHT22;39139;53.144;6.244;2023-03-04T04:53:51;5.50;99.90
51733;DHT22;39139;53.144;6.244;2023-03-04T04:56:22;5.50;99.90
51733;DHT22;39139;53.144;6.244;2023-03-04T04:58:51;5.50;99.90
51733;DHT22;39139;53.144;6.244;2023-03-04T05:01:17;5.50;99.90
51733;DHT22;39139;53.144;6.244;2023-03-04T05:03:43;5.50;99.90
51733;DHT22;39139;53.144;6.244;2023-03-04T05:06:10;5.50;99.90
51733;DHT22;39139;53.144;6.244;2023-03-04T05:08:36;5.50;99.90
51733;DHT22;39139;53.144;6.244;2023-03-04T05:11:05;5.60;99.90
51733;DHT22;39139;53.144;6.244;2023-03-04T05:13:31;5.60;99.90
51733;DHT22;39139;53.144;6.244;2023-03-04T05:15:57;5.70;99.90
51733;DHT22;39139;53.144;6.244;2023-03-04T05:18:24;5.70;99.90
51733;DHT22;39139;53.144;6.244;2023-03-04T05:20:58;5.70;99.90
51733;DHT22;39139;53.144;6.244;2023-03-04T05:23:25;5.70;99.90
51733;DHT22;39139;53.144;6.244;2023-03-04T05:25:51;5.70;99.90
51733;DHT22;39139;53.144;6.244;2023-03-04T05:28:17;5.70;99.90
51733;DHT22;39139;53.144;6.244;2023-03-04T05:30:44;5.70;99.90
51733;DHT22;39139;53.144;6.244;2023-03-04T05:33:12;5.70;99.90
51733;DHT22;39139;53.144;6.244;2023-03-04T05:35:39;5.70;99.90
51733;DHT22;39139;53.144;6.244;2023-03-04T05:38:07;5.60;99.90
51733;DHT22;39139;53.144;6.244;2023-03-04T05:40:33;5.70;99.90
51733;DHT22;39139;53.144;6.244;2023-03-04T05:42:59;5.60;99.90
51733;DHT22;39139;53.144;6.244;2023-03-04T05:45:25;5.80;99.90
51733;DHT22;39139;53.144;6.244;2023-03-04T05:47:51;5.70;99.90
51733;DHT22;39139;53.144;6.244;2023-03-04T05:50:17;4.40;99.90
51733;DHT22;39139;53.144;6.244;2023-03-04T05:52:42;5.70;99.90
51733;DHT22;39139;53.144;6.244;2023-03-04T05:55:08;5.60;99.90
51733;DHT22;39139;53.144;6.244;2023-03-04T05:57:34;5.60;99.90
51733;DHT22;39139;53.144;6.244;2023-03-04T06:00:00;5.50;99.90
51733;DHT22;39139;53.144;6.244;2023-03-04T06:02:26;5.50;99.90
51733;DHT22;39139;53.144;6.244;2023-03-04T06:04:51;5.40;99.90
51733;DHT22;39139;53.144;6.244;2023-03-04T06:07:17;5.50;99.90
51733;DHT22;39139;53.144;6.244;2023-03-04T06:09:43;5.40;99.90
51733;DHT22;39139;53.144;6.244;2023-03-04T06:12:10;5.40;99.90
51733;DHT22;39139;53.144;6.244;2023-03-04T06:14:36;5.50;99.90
51733;DHT22;39139;53.144;6.244;2023-03-04T06:17:02;5.60;99.90
51733;DHT22;39139;53.144;6.244;2023-03-04T06:19:27;5.40;99.90
51733;DHT22;39139;53.144;6.244;2023-03-04T06:21:53;5.50;99.90
51733;DHT22;39139;53.144;6.244;2023-03-04T06:24:19;5.40;99.90
51733;DHT22;39139;53.144;6.244;2023-03-04T06:26:44;5.40;99.90
51733;DHT22;39139;53.144;6.244;2023-03-04T06:29:10;5.40;99.90
51733;DHT22;39139;53.144;6.244;2023-03-04T06:31:36;5.40;99.90
51733;DHT22;39139;53.144;6.244;2023-03-04T06:34:02;5.30;99.90
51733;DHT22;39139;53.144;6.244;2023-03-04T06:36:28;5.30;99.90
51733;DHT22;39139;53.144;6.244;2023-03-04T06:38:53;5.30;99.90
51733;DHT22;39139;53.144;6.244;2023-03-04T06:41:19;5.20;99.90
51733;DHT22;39139;53.144;6.244;2023-03-04T06:43:45;5.20;99.90
51733;DHT22;39139;53.144;6.244;2023-03-04T06:46:10;5.30;99.90
51733;DHT22;39139;53.144;6.244;2023-03-04T06:48:36;5.20;99.90
51733;DHT22;39139;53.144;6.244;2023-03-04T06:51:09;5.30;99.90
51733;DHT22;39139;53.144;6.244;2023-03-04T06:53:36;5.30;99.90
51733;DHT22;39139;53.144;6.244;2023-03-04T06:56:03;5.30;99.90
51733;DHT22;39139;53.144;6.244;2023-03-04T06:58:29;5.30;99.90
51733;DHT22;39139;53.144;6.244;2023-03-04T07:00:54;5.30;99.90
51733;DHT22;39139;53.144;6.244;2023-03-04T07:03:20;5.40;99.90
51733;DHT22;39139;53.144;6.244;2023-03-04T07:05:46;5.50;99.90
51733;DHT22;39139;53.144;6.244;2023-03-04T07:08:12;5.50;99.90
51733;DHT22;39139;53.144;6.244;2023-03-04T07:10:37;5.50;99.90
51733;DHT22;39139;53.144;6.244;2023-03-04T07:13:03;5.50;99.90
51733;DHT22;39139;53.144;6.244;2023-03-04T07:15:29;5.50;99.90
51733;DHT22;39139;53.144;6.244;2023-03-04T07:17:55;5.50;99.90
51733;DHT22;39139;53.144;6.244;2023-03-04T07:20:21;5.70;99.90
51733;DHT22;39139;53.144;6.244;2023-03-04T07:22:46;5.50;99.90
51733;DHT22;39139;53.144;6.244;2023-03-04T07:25:12;5.60;99.90
51733;DHT22;39139;53.144;6.244;2023-03-04T07:27:38;5.60;99.90
51733;DHT22;39139;53.144;6.244;2023-03-04T07:30:06;5.60;99.90
51733;DHT22;39139;53.144;6.244;2023-03-04T07:32:32;5.60;99.90
51733;DHT22;39139;53.144;6.244;2023-03-04T07:35:01;5.60;99.90
51733;DHT22;39139;53.144;6.244;2023-03-04T07:37:28;5.80;99.90
51733;DHT22;39139;53.144;6.244;2023-03-04T07:39:54;5.70;99.90
51733;DHT22;39139;53.144;6.244;2023-03-04T07:42:19;5.80;99.90
51733;DHT22;39139;53.144;6.244;2023-03-04T07:44:45;5.90;99.90
51733;DHT22;39139;53.144;6.244;2023-03-04T07:47:10;5.90;99.90
51733;DHT22;39139;53.144;6.244;2023-03-04T07:49:36;6.10;99.90
51733;DHT22;39139;53.144;6.244;2023-03-04T07:52:03;5.90;99.90
51733;DHT22;39139;53.144;6.244;2023-03-04T07:54:29;5.90;99.90
51733;DHT22;39139;53.144;6.244;2023-03-04T07:56:55;6.00;99.90
51733;DHT22;39139;53.144;6.244;2023-03-04T07:59:20;6.00;99.90
51733;DHT22;39139;53.144;6.244;2023-03-04T08:01:46;6.00;99.90
51733;DHT22;39139;53.144;6.244;2023-03-04T08:04:12;6.10;99.90
51733;DHT22;39139;53.144;6.244;2023-03-04T08:06:39;6.30;99.90
51733;DHT22;39139;53.144;6.244;2023-03-04T08:09:06;6.10;99.90
51733;DHT22;39139;53.144;6.244;2023-03-04T08:11:34;6.20;99.90
51733;DHT22;39139;53.144;6.244;2023-03-04T08:14:00;6.20;99.90
51733;DHT22;39139;53.144;6.244;2023-03-04T08:16:27;6.20;99.90
51733;DHT22;39139;53.144;6.244;2023-03-04T08:18:55;6.10;99.90
51733;DHT22;39139;53.144;6.244;2023-03-04T08:21:23;6.10;99.90
51733;DHT22;39139;53.144;6.244;2023-03-04T08:23:49;6.10;99.90
51733;DHT22;39139;53.144;6.244;2023-03-04T08:26:24;6.10;99.90
51733;DHT22;39139;53.144;6.244;2023-03-04T08:28:51;6.20;99.90
51733;DHT22;39139;53.144;6.244;2023-03-04T08:31:17;6.10;99.90
51733;DHT22;39139;53.144;6.244;2023-03-04T08:33:43;6.10;99.90
51733;DHT22;39139;53.144;6.244;2023-03-04T08:36:11;6.20;99.90
51733;DHT22;39139;53.144;6.244;2023-03-04T08:38:37;6.20;99.90
51733;DHT22;39139;53.144;6.244;2023-03-04T08:41:02;4.80;99.90
51733;DHT22;39139;53.144;6.244;2023-03-04T08:43:29;6.10;99.90
51733;DHT22;39139;53.144;6.244;2023-03-04T08:45:55;6.10;99.90
51733;DHT22;39139;53.144;6.244;2023-03-04T08:48:21;6.20;99.90
51733;DHT22;39139;53.144;6.244;2023-03-04T08:50:48;6.20;99.90
51733;DHT22;39139;53.144;6.244;2023-03-04T08:53:15;6.20;99.90
51733;DHT22;39139;53.144;6.244;2023-03-04T08:55:42;6.30;99.90
51733;DHT22;39139;53.144;6.244;2023-03-04T08:58:09;6.30;99.90
51733;DHT22;39139;53.144;6.244;2023-03-04T09:00:37;6.30;99.90
51733;DHT22;39139;53.144;6.244;2023-03-04T09:03:03;6.40;99.90
51733;DHT22;39139;53.144;6.244;2023-03-04T09:05:29;6.40;99.90
51733;DHT22;39139;53.144;6.244;2023-03-04T09:07:56;6.50;99.90
51733;DHT22;39139;53.144;6.244;2023-03-04T09:10:22;6.70;99.90
51733;DHT22;39139;53.144;6.244;2023-03-04T09:12:47;6.50;99.90
51733;DHT22;39139;53.144;6.244;2023-03-04T09:15:13;6.50;99.90
51733;DHT22;39139;53.144;6.244;2023-03-04T09:17:40;6.50;99.90
51733;DHT22;39139;53.144;6.244;2023-03-04T09:20:08;6.60;99.90
51733;DHT22;39139;53.144;6.244;2023-03-04T09:22:39;6.60;99.90
51733;DHT22;39139;53.144;6.244;2023-03-04T09:25:06;6.60;99.90
51733;DHT22;39139;53.144;6.244;2023-03-04T09:27:32;6.70;99.90
51733;DHT22;39139;53.144;6.244;2023-03-04T09:29:57;6.70;99.90
51733;DHT22;39139;53.144;6.244;2023-03-04T09:32:23;7.10;99.90
51733;DHT22;39139;53.144;6.244;2023-03-04T09:34:49;6.80;99.90
51733;DHT22;39139;53.144;6.244;2023-03-04T09:37:14;6.80;99.90
51733;DHT22;39139;53.144;6.244;2023-03-04T09:39:40;6.80;99.90
51733;DHT22;39139;53.144;6.244;2023-03-04T09:42:07;6.70;99.90
51733;DHT22;39139;53.144;6.244;2023-03-04T09:44:38;6.70;99.90
51733;DHT22;39139;53.144;6.244;2023-03-04T09:47:15;6.70;99.90
51733;DHT22;39139;53.144;6.244;2023-03-04T09:49:44;6.70;99.90
51733;DHT22;39139;53.144;6.244;2023-03-04T10:00:32;7.10;99.90
51733;DHT22;39139;53.144;6.244;2023-03-04T10:05:53;7.10;99.90
51733;DHT22;39139;53.144;6.244;2023-03-04T10:11:53;6.90;99.90
51733;DHT22;39139;53.144;6.244;2023-03-04T10:14:39;6.80;99.90
51733;DHT22;39139;53.144;6.244;2023-03-04T10:17:21;6.80;99.90
51733;DHT22;39139;53.144;6.244;2023-03-04T10:19:56;6.90;99.90
51733;DHT22;39139;53.144;6.244;2023-03-04T10:22:41;7.00;99.90
51733;DHT22;39139;53.144;6.244;2023-03-04T10:25:26;7.30;99.90
51733;DHT22;39139;53.144;6.244;2023-03-04T10:27:59;7.80;99.90
51733;DHT22;39139;53.144;6.244;2023-03-04T10:33:18;8.20;99.90
51733;DHT22;39139;53.144;6.244;2023-03-04T10:35:58;8.20;99.90
51733;DHT22;39139;53.144;6.244;2023-03-04T10:38:24;8.10;99.90
51733;DHT22;39139;53.144;6.244;2023-03-04T10:40:50;7.90;99.90
51733;DHT22;39139;53.144;6.244;2023-03-04T10:43:20;7.80;99.90
51733;DHT22;39139;53.144;6.244;2023-03-04T10:45:47;7.70;99.90
51733;DHT22;39139;53.144;6.244;2023-03-04T10:48:23;7.60;99.90
51733;DHT22;39139;53.144;6.244;2023-03-04T10:50:49;7.70;99.90
51733;DHT22;39139;53.144;6.244;2023-03-04T10:53:27;7.90;99.90
51733;DHT22;39139;53.144;6.244;2023-03-04T10:55:54;8.10;99.90
51733;DHT22;39139;53.144;6.244;2023-03-04T10:58:20;8.30;99.90
51733;DHT22;39139;53.144;6.244;2023-03-04T11:01:00;8.90;99.90
51733;DHT22;39139;53.144;6.244;2023-03-04T11:06:04;9.30;99.90
51733;DHT22;39139;53.144;6.244;2023-03-04T11:08:30;9.30;99.90
51733;DHT22;39139;53.144;6.244;2023-03-04T11:10:56;9.20;99.90
51733;DHT22;39139;53.144;6.244;2023-03-04T11:13:23;9.00;99.90
51733;DHT22;39139;53.144;6.244;2023-03-04T11:20:59;8.50;99.90
51733;DHT22;39139;53.144;6.244;2023-03-04T11:26:01;8.40;99.90
51733;DHT22;39139;53.144;6.244;2023-03-04T11:29:27;9.20;99.90
51733;DHT22;39139;53.144;6.244;2023-03-04T11:42:48;9.30;99.90
51733;DHT22;39139;53.144;6.244;2023-03-04T11:45:27;9.30;99.90
51733;DHT22;39139;53.144;6.244;2023-03-04T12:04:11;8.30;99.90
51733;DHT22;39139;53.144;6.244;2023-03-04T12:10:19;8.00;99.90
51733;DHT22;39139;53.144;6.244;2023-03-04T12:15:27;8.30;99.90
51733;DHT22;39139;53.144;6.244;2023-03-04T12:20:46;9.00;99.90
51733;DHT22;39139;53.144;6.244;2023-03-04T12:23:52;9.00;99.90
51733;DHT22;39139;53.144;6.244;2023-03-04T12:26:53;8.90;99.90
51733;DHT22;39139;53.144;6.244;2023-03-04T12:40:26;8.70;99.90
51733;DHT22;39139;53.144;6.244;2023-03-04T12:43:02;9.40;99.90
51733;DHT22;39139;53.144;6.244;2023-03-04T12:48:35;10.00;99.90
51733;DHT22;39139;53.144;6.244;2023-03-04T12:59:01;9.10;99.90
51733;DHT22;39139;53.144;6.244;2023-03-04T13:01:37;8.90;99.90
51733;DHT22;39139;53.144;6.244;2023-03-04T13:04:05;8.80;99.90
51733;DHT22;39139;53.144;6.244;2023-03-04T13:09:30;8.90;99.90
51733;DHT22;39139;53.144;6.244;2023-03-04T13:12:40;9.40;99.90
51733;DHT22;39139;53.144;6.244;2023-03-04T13:20:31;10.90;99.90
51733;DHT22;39139;53.144;6.244;2023-03-04T13:22:58;11.10;99.90
51733;DHT22;39139;53.144;6.244;2023-03-04T13:41:21;9.80;99.90
51733;DHT22;39139;53.144;6.244;2023-03-04T13:46:40;9.20;99.90
51733;DHT22;39139;53.144;6.244;2023-03-04T13:49:15;8.90;99.90
51733;DHT22;39139;53.144;6.244;2023-03-04T13:51:43;8.70;99.90
51733;DHT22;39139;53.144;6.244;2023-03-04T13:54:30;8.50;99.90
51733;DHT22;39139;53.144;6.244;2023-03-04T13:59:29;8.40;99.90
51733;DHT22;39139;53.144;6.244;2023-03-04T14:02:02;8.60;99.90
51733;DHT22;39139;53.144;6.244;2023-03-04T14:04:40;8.90;99.90
51733;DHT22;39139;53.144;6.244;2023-03-04T14:07:35;9.00;99.90
51733;DHT22;39139;53.144;6.244;2023-03-04T14:10:06;8.90;99.90
51733;DHT22;39139;53.144;6.244;2023-03-04T14:12:38;8.70;99.90
51733;DHT22;39139;53.144;6.244;2023-03-04T14:15:15;8.50;99.90
51733;DHT22;39139;53.144;6.244;2023-03-04T14:17:47;8.30;99.90
51733;DHT22;39139;53.144;6.244;2023-03-04T14:20:38;8.00;99.90
51733;DHT22;39139;53.144;6.244;2023-03-04T14:23:23;7.90;99.90
51733;DHT22;39139;53.144;6.244;2023-03-04T14:25:49;7.70;99.90
51733;DHT22;39139;53.144;6.244;2023-03-04T14:28:18;8.10;99.90
51733;DHT22;39139;53.144;6.244;2023-03-04T14:30:55;7.60;99.90
51733;DHT22;39139;53.144;6.244;2023-03-04T14:33:27;7.70;99.90
51733;DHT22;39139;53.144;6.244;2023-03-04T14:35:56;7.80;99.90
51733;DHT22;39139;53.144;6.244;2023-03-04T14:38:26;7.90;99.90
51733;DHT22;39139;53.144;6.244;2023-03-04T14:41:04;8.00;99.90
51733;DHT22;39139;53.144;6.244;2023-03-04T14:43:35;8.00;99.90
51733;DHT22;39139;53.144;6.244;2023-03-04T14:46:07;7.90;99.90
51733;DHT22;39139;53.144;6.244;2023-03-04T14:48:35;7.80;99.90
51733;DHT22;39139;53.144;6.244;2023-03-04T14:51:01;7.80;99.90
51733;DHT22;39139;53.144;6.244;2023-03-04T14:53:29;7.70;99.90
51733;DHT22;39139;53.144;6.244;2023-03-04T14:55:57;7.60;99.90
51733;DHT22;39139;53.144;6.244;2023-03-04T14:58:28;7.50;99.90
51733;DHT22;39139;53.144;6.244;2023-03-04T15:01:20;7.50;99.90
51733;DHT22;39139;53.144;6.244;2023-03-04T15:04:02;7.50;99.90
51733;DHT22;39139;53.144;6.244;2023-03-04T15:06:31;7.60;99.90
51733;DHT22;39139;53.144;6.244;2023-03-04T15:09:03;7.70;99.90
51733;DHT22;39139;53.144;6.244;2023-03-04T15:11:32;7.50;99.90
51733;DHT22;39139;53.144;6.244;2023-03-04T15:13:59;7.50;99.90
51733;DHT22;39139;53.144;6.244;2023-03-04T15:16:27;7.60;99.90
51733;DHT22;39139;53.144;6.244;2023-03-04T15:19:03;7.60;99.90
51733;DHT22;39139;53.144;6.244;2023-03-04T15:21:38;7.50;99.90
51733;DHT22;39139;53.144;6.244;2023-03-04T15:24:08;7.60;99.90
51733;DHT22;39139;53.144;6.244;2023-03-04T15:26:38;7.50;99.90
51733;DHT22;39139;53.144;6.244;2023-03-04T15:29:16;7.50;99.90
51733;DHT22;39139;53.144;6.244;2023-03-04T15:31:42;7.50;99.90
51733;DHT22;39139;53.144;6.244;2023-03-04T15:34:14;7.50;99.90
51733;DHT22;39139;53.144;6.244;2023-03-04T15:36:40;7.40;99.90
51733;DHT22;39139;53.144;6.244;2023-03-04T15:39:10;7.30;99.90
51733;DHT22;39139;53.144;6.244;2023-03-04T15:41:36;7.30;99.90
51733;DHT22;39139;53.144;6.244;2023-03-04T15:44:02;7.40;99.90
51733;DHT22;39139;53.144;6.244;2023-03-04T15:46:27;7.40;99.90
51733;DHT22;39139;53.144;6.244;2023-03-04T15:48:53;7.20;99.90
51733;DHT22;39139;53.144;6.244;2023-03-04T15:51:20;7.10;99.90
51733;DHT22;39139;53.144;6.244;2023-03-04T15:53:49;7.10;99.90
51733;DHT22;39139;53.144;6.244;2023-03-04T15:56:19;7.00;99.90
51733;DHT22;39139;53.144;6.244;2023-03-04T15:58:46;7.00;99.90
51733;DHT22;39139;53.144;6.244;2023-03-04T16:01:15;7.00;99.90
51733;DHT22;39139;53.144;6.244;2023-03-04T16:03:41;6.90;99.90
51733;DHT22;39139;53.144;6.244;2023-03-04T16:06:09;6.90;99.90
51733;DHT22;39139;53.144;6.244;2023-03-04T16:08:36;6.80;99.90
51733;DHT22;39139;53.144;6.244;2023-03-04T16:11:02;6.80;99.90
51733;DHT22;39139;53.144;6.244;2023-03-04T16:13:28;6.70;99.90
51733;DHT22;39139;53.144;6.244;2023-03-04T16:15:53;6.70;99.90
51733;DHT22;39139;53.144;6.244;2023-03-04T16:18:19;6.70;99.90
51733;DHT22;39139;53.144;6.244;2023-03-04T16:20:47;6.60;99.90
51733;DHT22;39139;53.144;6.244;2023-03-04T16:23:20;6.60;99.90
51733;DHT22;39139;53.144;6.244;2023-03-04T16:25:47;6.60;99.90
51733;DHT22;39139;53.144;6.244;2023-03-04T16:28:13;6.60;99.90
51733;DHT22;39139;53.144;6.244;2023-03-04T16:30:40;6.60;99.90
51733;DHT22;39139;53.144;6.244;2023-03-04T16:33:06;6.30;99.90
51733;DHT22;39139;53.144;6.244;2023-03-04T16:35:32;6.20;99.90
51733;DHT22;39139;53.144;6.244;2023-03-04T16:38:00;6.20;99.90
51733;DHT22;39139;53.144;6.244;2023-03-04T16:40:27;6.00;99.90
51733;DHT22;39139;53.144;6.244;2023-03-04T16:42:54;6.00;99.90
51733;DHT22;39139;53.144;6.244;2023-03-04T16:45:22;6.00;99.90
51733;DHT22;39139;53.144;6.244;2023-03-04T16:47:49;5.90;99.90
51733;DHT22;39139;53.144;6.244;2023-03-04T16:50:16;5.80;99.90
51733;DHT22;39139;53.144;6.244;2023-03-04T16:52:46;5.80;99.90
51733;DHT22;39139;53.144;6.244;2023-03-04T16:55:18;5.80;99.90
51733;DHT22;39139;53.144;6.244;2023-03-04T16:57:45;5.80;99.90
51733;DHT22;39139;53.144;6.244;2023-03-04T17:00:12;5.70;99.90
51733;DHT22;39139;53.144;6.244;2023-03-04T17:02:39;5.70;99.90
51733;DHT22;39139;53.144;6.244;2023-03-04T17:05:05;5.70;99.90
51733;DHT22;39139;53.144;6.244;2023-03-04T17:07:31;5.60;99.90
51733;DHT22;39139;53.144;6.244;2023-03-04T17:09:57;5.60;99.90
51733;DHT22;39139;53.144;6.244;2023-03-04T17:12:22;5.80;99.90
51733;DHT22;39139;53.144;6.244;2023-03-04T17:14:48;5.50;99.90
51733;DHT22;39139;53.144;6.244;2023-03-04T17:17:14;5.40;99.90
51733;DHT22;39139;53.144;6.244;2023-03-04T17:19:39;5.50;99.90
51733;DHT22;39139;53.144;6.244;2023-03-04T17:22:05;5.80;99.90
51733;DHT22;39139;53.144;6.244;2023-03-04T17:24:31;5.40;99.90
51733;DHT22;39139;53.144;6.244;2023-03-04T17:26:57;5.40;99.90
51733;DHT22;39139;53.144;6.244;2023-03-04T17:29:22;5.30;99.90
51733;DHT22;39139;53.144;6.244;2023-03-04T17:31:48;5.30;99.90
51733;DHT22;39139;53.144;6.244;2023-03-04T17:34:13;5.30;99.90
51733;DHT22;39139;53.144;6.244;2023-03-04T17:36:39;5.20;99.90
51733;DHT22;39139;53.144;6.244;2023-03-04T17:39:05;5.20;99.90
51733;DHT22;39139;53.144;6.244;2023-03-04T17:41:31;5.20;99.90
51733;DHT22;39139;53.144;6.244;2023-03-04T17:43:57;5.10;99.90
51733;DHT22;39139;53.144;6.244;2023-03-04T17:46:25;5.10;99.90
51733;DHT22;39139;53.144;6.244;2023-03-04T17:48:57;5.10;99.90